sensor_id;sensor_type;location;lat;lon;timestamp;pressure;altitude;pressure_sealevel;temperature;humidity
9289;BME280;4683;50.864;12.086;2022-12-18T01:52:54;100710.28;;;-8.88;100.00
9289;BME280;4683;50.864;12.086;2022-12-18T01:55:29;100712.88;;;-8.89;100.00
9289;BME280;4683;50.864;12.086;2022-12-18T01:58:00;100713.78;;;-8.97;100.00
9289;BME280;4683;50.864;12.086;2022-12-18T02:00:30;100718.13;;;-9.02;100.00
9289;BME280;4683;50.864;12.086;2022-12-18T02:02:59;100712.19;;;-9.05;100.00
9289;BME280;4683;50.864;12.086;2022-12-18T02:05:49;100715.63;;;-9.09;100.00
9289;BME280;4683;50.864;12.086;2022-12-18T02:08:35;100713.09;;;-9.11;100.00
9289;BME280;4683;50.864;12.086;2022-12-18T02:11:11;100714.75;;;-9.08;100.00
9289;BME280;4683;50.864;12.086;2022-12-18T02:13:50;100704.53;;;-9.07;100.00
9289;BME280;4683;50.864;12.086;2022-12-18T02:16:34;100707.91;;;-9.05;100.00
9289;BME280;4683;50.864;12.086;2022-12-18T02:22:33;100712.19;;;-9.08;100.00
9289;BME280;4683;50.864;12.086;2022-12-18T02:25:25;100703.75;;;-9.13;100.00
9289;BME280;4683;50.864;12.086;2022-12-18T02:28:06;100701.13;;;-9.06;100.00
9289;BME280;4683;50.864;12.086;2022-12-18T02:30:37;100706.13;;;-8.97;100.00
9289;BME280;4683;50.864;12.086;2022-12-18T02:33:08;100694.97;;;-8.89;100.00
9289;BME280;4683;50.864;12.086;2022-12-18T02:35:40;100701.78;;;-8.88;100.00
9289;BME280;4683;50.864;12.086;2022-12-18T02:38:10;100690.78;;;-8.93;100.00
9289;BME280;4683;50.864;12.086;2022-12-18T02:40:41;100700.16;;;-8.97;100.00
9289;BME280;4683;50.864;12.086;2022-12-18T02:43:14;100706.22;;;-9.06;100.00
9289;BME280;4683;50.864;12.086;2022-12-18T02:45:55;100708.94;;;-9.20;100.00
9289;BME280;4683;50.864;12.086;2022-12-18T02:48:28;100702.97;;;-9.17;100.00
9289;BME280;4683;50.864;12.086;2022-12-18T02:51:03;100701.25;;;-9.18;100.00
9289;BME280;4683;50.864;12.086;2022-12-18T02:53:41;100696.09;;;-9.15;100.00
9289;BME280;4683;50.864;12.086;2022-12-18T03:23:30;100695.38;;;-9.26;100.00
9289;BME280;4683;50.864;12.086;2022-12-18T03:26:04;100690.28;;;-9.28;100.00
9289;BME280;4683;50.864;12.086;2022-12-18T03:28:36;100703.00;;;-9.23;100.00
9289;BME280;4683;50.864;12.086;2022-12-18T03:31:09;100702.13;;;-9.22;100.00
9289;BME280;4683;50.864;12.086;2022-12-18T03:33:41;100699.56;;;-9.19;100.00
9289;BME280;4683;50.864;12.086;2022-12-18T03:36:10;100706.31;;;-9.15;100.00
9289;BME280;4683;50.864;12.086;2022-12-18T03:38:40;100713.97;;;-9.12;100.00
9289;BME280;4683;50.864;12.086;2022-12-18T03:41:22;100718.19;;;-9.08;100.00
9289;BME280;4683;50.864;12.086;2022-12-18T03:44:03;100717.38;;;-9.11;100.00
9289;BME280;4683;50.864;12.086;2022-12-18T03:46:45;100714.81;;;-9.13;100.00
9289;BME280;4683;50.864;12.086;2022-12-18T03:49:23;100709.66;;;-9.07;100.00
9289;BME280;4683;50.864;12.086;2022-12-18T03:51:59;100714.78;;;-9.10;100.00
9289;BME280;4683;50.864;12.086;2022-12-18T03:54:32;100719.06;;;-9.13;100.00
9289;BME280;4683;50.864;12.086;2022-12-18T03:57:06;100715.72;;;-9.17;100.00
9289;BME280;4683;50.864;12.086;2022-12-18T03:59:39;100717.31;;;-9.08;100.00
9289;BME280;4683;50.864;12.086;2022-12-18T04:02:09;100713.84;;;-9.01;100.00
9289;BME280;4683;50.864;12.086;2022-12-18T04:04:39;100721.53;;;-9.03;100.00
9289;BME280;4683;50.864;12.086;2022-12-18T04:07:09;100725.09;;;-9.16;100.00
9289;BME280;4683;50.864;12.086;2022-12-18T04:09:40;100723.50;;;-9.29;100.00
9289;BME280;4683;50.864;12.086;2022-12-18T04:12:09;100739.75;;;-9.36;100.00
9289;BME280;4683;50.864;12.086;2022-12-18T04:14:38;100747.38;;;-9.30;100.00
9289;BME280;4683;50.864;12.086;2022-12-18T04:17:06;100740.53;;;-9.31;100.00
9289;BME280;4683;50.864;12.086;2022-12-18T04:19:35;100744.03;;;-9.38;100.00
9289;BME280;4683;50.864;12.086;2022-12-18T04:22:03;100733.03;;;-9.50;100.00
9289;BME280;4683;50.864;12.086;2022-12-18T08:23:44;100838.38;;;-9.20;100.00
9289;BME280;4683;50.864;12.086;2022-12-18T08:26:16;100836.47;;;-8.97;100.00
9289;BME280;4683;50.864;12.086;2022-12-18T08:28:44;100839.75;;;-8.84;100.00
9289;BME280;4683;50.864;12.086;2022-12-18T08:31:20;100838.06;;;-8.85;100.00
9289;BME280;4683;50.864;12.086;2022-12-18T08:33:50;100835.34;;;-8.68;100.00
9289;BME280;4683;50.864;12.086;2022-12-18T08:36:19;100837.91;;;-8.70;100.00
9289;BME280;4683;50.864;12.086;2022-12-18T08:38:50;100838.94;;;-8.90;100.00
9289;BME280;4683;50.864;12.086;2022-12-18T08:41:18;100826.03;;;-8.77;100.00
9289;BME280;4683;50.864;12.086;2022-12-18T08:43:47;100819.19;;;-8.72;100.00
9289;BME280;4683;50.864;12.086;2022-12-18T08:46:36;100830.38;;;-8.83;100.00
9289;BME280;4683;50.864;12.086;2022-12-18T08:49:06;100833.72;;;-8.78;100.00
9289;BME280;4683;50.864;12.086;2022-12-18T08:51:37;100828.50;;;-8.66;100.00
9289;BME280;4683;50.864;12.086;2022-12-18T08:54:07;100826.72;;;-8.58;100.00
9289;BME280;4683;50.864;12.086;2022-12-18T08:56:38;100833.56;;;-8.63;100.00
9289;BME280;4683;50.864;12.086;2022-12-18T08:59:08;100833.56;;;-8.63;100.00
9289;BME280;4683;50.864;12.086;2022-12-18T09:01:36;100827.47;;;-8.48;100.00
9289;BME280;4683;50.864;12.086;2022-12-18T09:04:07;100822.69;;;-8.08;100.00
9289;BME280;4683;50.864;12.086;2022-12-18T09:06:36;100820.66;;;-7.84;100.00
9289;BME280;4683;50.864;12.086;2022-12-18T09:09:07;100819.41;;;-7.59;100.00
9289;BME280;4683;50.864;12.086;2022-12-18T09:11:35;100814.91;;;-7.42;100.00
9289;BME280;4683;50.864;12.086;2022-12-18T09:14:04;100814.84;;;-7.38;100.00
9289;BME280;4683;50.864;12.086;2022-12-18T09:16:33;100811.38;;;-7.34;100.00
9289;BME280;4683;50.864;12.086;2022-12-18T09:19:04;100815.81;;;-7.44;100.00
9289;BME280;4683;50.864;12.086;2022-12-18T09:21:37;100815.81;;;-7.44;100.00
9289;BME280;4683;50.864;12.086;2022-12-18T10:43:13;100711.84;;;-4.28;100.00
9289;BME280;4683;50.864;12.086;2022-12-18T10:46:04;100707.94;;;-4.12;100.00
9289;BME280;4683;50.864;12.086;2022-12-18T10:48:40;100708.19;;;-3.93;100.00
9289;BME280;4683;50.864;12.086;2022-12-18T10:51:09;100704.34;;;-3.80;100.00
9289;BME280;4683;50.864;12.086;2022-12-18T10:53:41;100699.53;;;-3.64;100.00
9289;BME280;4683;50.864;12.086;2022-12-18T10:56:10;100703.97;;;-3.68;100.00
9289;BME280;4683;50.864;12.086;2022-12-18T10:58:40;100700.72;;;-3.74;100.00
9289;BME280;4683;50.864;12.086;2022-12-18T11:01:11;100699.09;;;-3.77;100.00
9289;BME280;4683;50.864;12.086;2022-12-18T11:03:43;100690.91;;;-3.63;100.00
9289;BME280;4683;50.864;12.086;2022-12-18T11:06:14;100697.13;;;-3.44;100.00
9289;BME280;4683;50.864;12.086;2022-12-18T11:08:57;100708.50;;;-3.24;100.00
9289;BME280;4683;50.864;12.086;2022-12-18T11:11:28;100709.16;;;-3.18;100.00
9289;BME280;4683;50.864;12.086;2022-12-18T11:14:05;100707.88;;;-3.06;100.00
9289;BME280;4683;50.864;12.086;2022-12-18T11:16:46;100704.22;;;-3.00;100.00
9289;BME280;4683;50.864;12.086;2022-12-18T11:19:39;100708.19;;;-2.90;100.00
9289;BME280;4683;50.864;12.086;2022-12-18T11:22:23;100708.72;;;-2.81;100.00
9289;BME280;4683;50.864;12.086;2022-12-18T11:24:56;100710.47;;;-2.58;100.00
9289;BME280;4683;50.864;12.086;2022-12-18T11:27:27;100713.25;;;-2.40;100.00
9289;BME280;4683;50.864;12.086;2022-12-18T11:30:10;100706.00;;;-2.31;100.00
9289;BME280;4683;50.864;12.086;2022-12-18T11:32:49;100709.91;;;-2.20;100.00
9289;BME280;4683;50.864;12.086;2022-12-18T11:35:27;100707.75;;;-2.09;100.00
9289;BME280;4683;50.864;12.086;2022-12-18T11:38:04;100703.19;;;-2.02;100.00
9289;BME280;4683;50.864;12.086;2022-12-18T11:40:36;100700.16;;;-1.92;100.00
9289;BME280;4683;50.864;12.086;2022-12-18T14:45:40;100600.81;;;-1.45;100.00
9289;BME280;4683;50.864;12.086;2022-12-18T14:48:16;100591.75;;;-1.54;100.00
9289;BME280;4683;50.864;12.086;2022-12-18T14:50:54;100584.63;;;-1.69;100.00
9289;BME280;4683;50.864;12.086;2022-12-18T14:53:34;100596.38;;;-1.83;100.00
9289;BME280;4683;50.864;12.086;2022-12-18T14:56:14;100591.34;;;-1.86;100.00
9289;BME280;4683;50.864;12.086;2022-12-18T14:58:50;100583.72;;;-1.89;100.00
9289;BME280;4683;50.864;12.086;2022-12-18T15:01:32;100581.88;;;-2.07;100.00
9289;BME280;4683;50.864;12.086;2022-12-18T15:04:02;100589.38;;;-2.21;100.00
9289;BME280;4683;50.864;12.086;2022-12-18T15:06:35;100587.00;;;-2.27;100.00
9289;BME280;4683;50.864;12.086;2022-12-18T15:09:23;100594.09;;;-2.33;100.00
9289;BME280;4683;50.864;12.086;2022-12-18T15:11:57;100600.06;;;-2.31;100.00
9289;BME280;4683;50.864;12.086;2022-12-18T15:14:34;100607.84;;;-2.32;100.00
9289;BME280;4683;50.864;12.086;2022-12-18T15:17:14;100605.34;;;-2.34;100.00
9289;BME280;4683;50.864;12.086;2022-12-18T15:19:44;100618.34;;;-2.35;100.00
9289;BME280;4683;50.864;12.086;2022-12-18T15:22:30;100618.50;;;-2.40;100.00
9289;BME280;4683;50.864;12.086;2022-12-18T15:25:19;100605.59;;;-2.40;100.00
9289;BME280;4683;50.864;12.086;2022-12-18T15:27:52;100597.97;;;-2.43;100.00
9289;BME280;4683;50.864;12.086;2022-12-18T15:30:23;100595.72;;;-2.52;100.00
9289;BME280;4683;50.864;12.086;2022-12-18T15:33:24;100594.63;;;-2.68;100.00
9289;BME280;4683;50.864;12.086;2022-12-18T15:35:59;100590.50;;;-2.72;100.00
9289;BME280;4683;50.864;12.086;2022-12-18T15:38:29;100591.53;;;-2.76;100.00
9289;BME280;4683;50.864;12.086;2022-12-18T15:40:57;100590.69;;;-2.77;100.00
9289;BME280;4683;50.864;12.086;2022-12-18T15:43:31;100590.63;;;-2.75;100.00
9289;BME280;4683;50.864;12.086;2022-12-18T18:14:43;100484.47;;;-0.73;100.00
9289;BME280;4683;50.864;12.086;2022-12-18T18:17:12;100482.59;;;-0.69;100.00
9289;BME280;4683;50.864;12.086;2022-12-18T18:19:42;100486.84;;;-0.68;100.00
9289;BME280;4683;50.864;12.086;2022-12-18T18:22:10;100488.47;;;-0.66;100.00
9289;BME280;4683;50.864;12.086;2022-12-18T18:24:40;100490.97;;;-0.64;100.00
9289;BME280;4683;50.864;12.086;2022-12-18T18:27:09;100498.47;;;-0.58;100.00
9289;BME280;4683;50.864;12.086;2022-12-18T18:29:38;100494.03;;;-0.56;100.00
9289;BME280;4683;50.864;12.086;2022-12-18T18:32:09;100492.38;;;-0.57;100.00
9289;BME280;4683;50.864;12.086;2022-12-18T18:34:41;100474.22;;;-0.57;100.00
9289;BME280;4683;50.864;12.086;2022-12-18T18:37:10;100467.16;;;-0.54;100.00
9289;BME280;4683;50.864;12.086;2022-12-18T18:39:39;100467.22;;;-0.55;100.00
9289;BME280;4683;50.864;12.086;2022-12-18T18:42:08;100455.09;;;-0.55;100.00
9289;BME280;4683;50.864;12.086;2022-12-18T18:44:36;100454.94;;;-0.52;100.00
9289;BME280;4683;50.864;12.086;2022-12-18T18:47:04;100455.63;;;-0.48;100.00
9289;BME280;4683;50.864;12.086;2022-12-18T18:49:34;100445.13;;;-0.45;100.00
9289;BME280;4683;50.864;12.086;2022-12-18T18:52:02;100436.56;;;-0.47;100.00
9289;BME280;4683;50.864;12.086;2022-12-18T18:54:37;100436.44;;;-0.44;100.00
9289;BME280;4683;50.864;12.086;2022-12-18T18:57:05;100444.13;;;-0.42;100.00
9289;BME280;4683;50.864;12.086;2022-12-18T18:59:35;100447.50;;;-0.40;100.00
9289;BME280;4683;50.864;12.086;2022-12-18T19:02:04;100450.97;;;-0.41;100.00
9289;BME280;4683;50.864;12.086;2022-12-18T19:04:35;100441.47;;;-0.41;100.00
9289;BME280;4683;50.864;12.086;2022-12-18T19:07:03;100438.66;;;-0.36;100.00
9289;BME280;4683;50.864;12.086;2022-12-18T19:09:32;100426.91;;;-0.43;100.00
9289;BME280;4683;50.864;12.086;2022-12-18T19:12:04;100423.16;;;-0.38;100.00
9289;BME280;4683;50.864;12.086;2022-12-18T20:16:41;100380.84;;;-0.05;100.00
9289;BME280;4683;50.864;12.086;2022-12-18T20:19:11;100382.31;;;0.01;100.00
9289;BME280;4683;50.864;12.086;2022-12-18T20:21:41;100380.38;;;0.04;100.00
9289;BME280;4683;50.864;12.086;2022-12-18T20:24:10;100369.69;;;0.10;100.00
9289;BME280;4683;50.864;12.086;2022-12-18T20:26:39;100369.50;;;0.13;100.00
9289;BME280;4683;50.864;12.086;2022-12-18T20:29:08;100372.88;;;0.15;100.00
9289;BME280;4683;50.864;12.086;2022-12-18T20:31:36;100377.91;;;0.18;100.00
9289;BME280;4683;50.864;12.086;2022-12-18T20:34:06;100379.72;;;0.16;100.00
9289;BME280;4683;50.864;12.086;2022-12-18T20:36:34;100383.69;;;0.23;100.00
9289;BME280;4683;50.864;12.086;2022-12-18T20:39:03;100387.75;;;-0.04;100.00
9289;BME280;4683;50.864;12.086;2022-12-18T20:41:32;100390.72;;;-0.12;100.00
9289;BME280;4683;50.864;12.086;2022-12-18T20:44:00;100385.88;;;-0.18;100.00
9289;BME280;4683;50.864;12.086;2022-12-18T20:46:31;100384.53;;;-0.09;100.00
9289;BME280;4683;50.864;12.086;2022-12-18T20:49:00;100383.75;;;0.06;100.00
9289;BME280;4683;50.864;12.086;2022-12-18T20:51:30;100385.75;;;0.17;100.00
9289;BME280;4683;50.864;12.086;2022-12-18T20:54:00;100379.25;;;0.25;100.00
9289;BME280;4683;50.864;12.086;2022-12-18T20:56:30;100381.50;;;0.32;100.00
9289;BME280;4683;50.864;12.086;2022-12-18T20:58:59;100381.34;;;0.35;100.00
9289;BME280;4683;50.864;12.086;2022-12-18T21:01:29;100376.94;;;0.37;100.00
9289;BME280;4683;50.864;12.086;2022-12-18T21:03:58;100369.53;;;0.45;100.00
9289;BME280;4683;50.864;12.086;2022-12-18T21:06:27;100373.97;;;0.43;100.00
9289;BME280;4683;50.864;12.086;2022-12-18T21:08:57;100379.91;;;0.45;100.00
9289;BME280;4683;50.864;12.086;2022-12-18T21:11:28;100375.75;;;0.42;100.00
9289;BME280;4683;50.864;12.086;2022-12-18T21:14:17;100377.75;;;0.37;100.00
